Time;durP1;ratioP1;P1;durP2;ratioP2;P2;SDS_P1;SDS_P2;PMS_P1;PMS_P2;Temp;Humidity;BMP_temperature;BMP_pressure;BME280_temperature;BME280_humidity;BME280_pressure;Samples;Min_cycle;Max_cycle;Signal;HPM_P1;HPM_P2
2023/07/09 00:01:17;;;;;;;;;;;20.80;67.00;;;;;;6168044;23;20250;-91
2023/07/09 00:03:43;;;;;;;;;;;20.80;66.80;;;;;;6190584;23;19926;-91
2023/07/09 00:06:12;;;;;;;;;;;20.80;66.90;;;;;;6191516;23;20520;-92
2023/07/09 00:08:41;;;;;;;;;;;20.80;66.80;;;;;;6168635;23;20297;-92
2023/07/09 00:11:09;;;;;;;;;;;20.80;66.80;;;;;;6192102;23;19920;-91
2023/07/09 00:13:45;;;;;;;;;;;20.80;67.10;;;;;;6157297;23;19919;-91
2023/07/09 00:16:28;;;;;;;;;;;20.70;67.00;;;;;;6167963;23;19978;-94
2023/07/09 00:18:54;;;;;;;;;;;20.70;67.00;;;;;;6171027;23;19928;-94
2023/07/09 00:21:21;;;;;;;;;;;20.70;67.50;;;;;;6192389;23;20249;-94
2023/07/09 00:23:48;;;;;;;;;;;20.60;68.20;;;;;;6190684;23;19920;-94
2023/07/09 00:26:23;;;;;;;;;;;20.50;68.50;;;;;;6190468;23;19927;-94
2023/07/09 00:28:48;;;;;;;;;;;20.50;69.00;;;;;;6185249;23;19946;-94
2023/07/09 00:31:16;;;;;;;;;;;20.40;69.40;;;;;;6191565;23;20326;-93
2023/07/09 00:33:42;;;;;;;;;;;20.30;69.00;;;;;;6176247;23;19930;-94
2023/07/09 00:36:19;;;;;;;;;;;20.20;68.70;;;;;;6191462;23;19927;-94
2023/07/09 00:38:47;;;;;;;;;;;20.10;68.40;;;;;;6189465;23;19920;-93
2023/07/09 00:41:48;;;;;;;;;;;20.10;68.70;;;;;;6194251;23;20345;-94
2023/07/09 00:44:17;;;;;;;;;;;20.00;70.20;;;;;;6173387;23;19986;-94
2023/07/09 00:46:46;;;;;;;;;;;20.00;69.90;;;;;;6187384;23;19916;-94
2023/07/09 00:49:21;;;;;;;;;;;19.90;69.50;;;;;;6190781;23;19920;-94
2023/07/09 00:51:46;;;;;;;;;;;19.80;69.40;;;;;;6194049;23;19919;-93
2023/07/09 00:54:37;;;;;;;;;;;19.70;70.10;;;;;;6201789;23;19982;-93
2023/07/09 00:57:12;;;;;;;;;;;19.70;70.10;;;;;;6184396;23;19923;-93
2023/07/09 00:59:38;;;;;;;;;;;19.60;70.10;;;;;;6193358;23;19923;-93
2023/07/09 01:02:04;;;;;;;;;;;19.50;71.00;;;;;;6191472;23;19930;-94
2023/07/09 01:04:30;;;;;;;;;;;19.50;71.00;;;;;;6193967;23;19927;-93
2023/07/09 01:06:56;;;;;;;;;;;19.50;70.60;;;;;;6212036;23;19955;-94
2023/07/09 01:09:22;;;;;;;;;;;19.50;70.70;;;;;;6185584;23;20291;-94
2023/07/09 01:11:56;;;;;;;;;;;19.40;70.50;;;;;;6188379;23;19924;-94
2023/07/09 01:14:24;;;;;;;;;;;19.40;71.10;;;;;;6161914;23;19919;-93
2023/07/09 01:16:57;;;;;;;;;;;19.40;70.80;;;;;;6157816;23;19947;-94
2023/07/09 01:19:26;;;;;;;;;;;19.40;71.60;;;;;;6147000;23;19924;-94
2023/07/09 01:22:12;;;;;;;;;;;19.40;71.30;;;;;;6163809;23;19919;-93
2023/07/09 01:24:55;;;;;;;;;;;19.40;71.40;;;;;;6186187;23;19920;-94
2023/07/09 01:27:26;;;;;;;;;;;19.40;71.40;;;;;;6155655;23;20320;-94
2023/07/09 01:29:52;;;;;;;;;;;19.30;70.90;;;;;;6163315;23;19946;-94
2023/07/09 01:32:21;;;;;;;;;;;19.30;70.20;;;;;;6186574;23;19920;-94
2023/07/09 01:34:48;;;;;;;;;;;19.30;70.30;;;;;;6188072;23;19927;-93
2023/07/09 01:37:17;;;;;;;;;;;19.20;70.10;;;;;;6181447;23;19920;-93
2023/07/09 01:39:43;;;;;;;;;;;19.20;70.00;;;;;;6188049;23;19920;-92
2023/07/09 01:42:09;;;;;;;;;;;19.20;70.30;;;;;;6169766;23;19920;-93
2023/07/09 01:44:38;;;;;;;;;;;19.20;70.30;;;;;;6163103;23;20345;-93
2023/07/09 01:47:04;;;;;;;;;;;19.10;70.00;;;;;;6169485;23;20489;-93
2023/07/09 01:49:33;;;;;;;;;;;19.10;70.30;;;;;;6162070;23;20238;-93
2023/07/09 01:52:03;;;;;;;;;;;19.00;71.50;;;;;;6138702;23;19951;-94
2023/07/09 01:54:30;;;;;;;;;;;19.00;70.60;;;;;;6161347;23;20334;-93
2023/07/09 01:57:15;;;;;;;;;;;19.00;70.60;;;;;;6156587;23;20542;-93
2023/07/09 01:59:44;;;;;;;;;;;18.90;70.50;;;;;;6161236;23;19920;-93
2023/07/09 02:02:18;;;;;;;;;;;18.90;70.10;;;;;;6160681;23;19920;-93
2023/07/09 02:04:46;;;;;;;;;;;18.90;70.20;;;;;;6163160;23;19920;-93
2023/07/09 02:07:15;;;;;;;;;;;18.90;70.20;;;;;;6138261;23;19920;-94
2023/07/09 02:09:43;;;;;;;;;;;18.80;70.30;;;;;;6192678;23;19969;-94
2023/07/09 02:12:12;;;;;;;;;;;18.80;70.50;;;;;;6161906;23;19930;-93
2023/07/09 02:14:39;;;;;;;;;;;18.80;70.30;;;;;;6193844;23;19948;-93
2023/07/09 02:17:04;;;;;;;;;;;18.80;70.10;;;;;;6168732;23;19920;-93
2023/07/09 02:19:40;;;;;;;;;;;18.80;70.40;;;;;;6192695;23;20282;-93
2023/07/09 02:22:06;;;;;;;;;;;18.80;70.70;;;;;;6176332;23;19924;-93
2023/07/09 02:24:31;;;;;;;;;;;18.80;70.40;;;;;;6193047;23;19987;-93
2023/07/09 02:27:01;;;;;;;;;;;18.80;70.50;;;;;;6186080;23;19920;-94
2023/07/09 02:29:27;;;;;;;;;;;18.80;71.20;;;;;;6190736;23;19958;-94
2023/07/09 02:32:02;;;;;;;;;;;18.70;71.90;;;;;;6192852;23;19927;-94
2023/07/09 02:34:28;;;;;;;;;;;18.70;71.20;;;;;;6176498;23;19926;-94
2023/07/09 02:37:02;;;;;;;;;;;18.70;71.90;;;;;;6185596;23;20571;-94
2023/07/09 02:39:28;;;;;;;;;;;18.60;71.70;;;;;;6193069;23;19925;-93
2023/07/09 02:41:53;;;;;;;;;;;18.60;71.70;;;;;;6217528;23;19947;-93
2023/07/09 02:44:19;;;;;;;;;;;18.60;71.40;;;;;;6191182;23;20392;-94
2023/07/09 02:46:46;;;;;;;;;;;18.50;72.20;;;;;;6211889;23;20596;-94
2023/07/09 02:49:21;;;;;;;;;;;18.50;71.90;;;;;;6174977;23;19919;-93
2023/07/09 02:51:49;;;;;;;;;;;18.50;71.80;;;;;;6192605;23;19919;-94
2023/07/09 02:54:28;;;;;;;;;;;18.50;72.20;;;;;;6172060;23;19978;-93
2023/07/09 02:56:56;;;;;;;;;;;18.50;71.80;;;;;;6176564;23;19916;-93
2023/07/09 03:02:18;;;;;;;;;;;18.50;73.00;;;;;;6209673;23;19942;-94
2023/07/09 03:04:44;;;;;;;;;;;18.40;72.20;;;;;;6193015;23;19947;-93
2023/07/09 03:07:09;;;;;;;;;;;18.40;71.50;;;;;;6167019;23;19926;-91
2023/07/09 03:09:38;;;;;;;;;;;18.40;71.30;;;;;;6161763;23;19927;-91
2023/07/09 03:12:04;;;;;;;;;;;18.40;71.50;;;;;;6177561;23;19927;-90
2023/07/09 03:14:33;;;;;;;;;;;18.30;72.70;;;;;;6192264;23;19955;-90
2023/07/09 03:17:01;;;;;;;;;;;18.30;72.50;;;;;;6185998;23;19924;-90
2023/07/09 03:19:29;;;;;;;;;;;18.30;72.60;;;;;;6215142;23;19930;-90
2023/07/09 03:22:00;;;;;;;;;;;18.30;72.20;;;;;;6192407;23;19985;-91
2023/07/09 03:24:26;;;;;;;;;;;18.40;72.60;;;;;;6189895;23;20290;-91
2023/07/09 03:26:52;;;;;;;;;;;18.40;72.80;;;;;;6211002;23;19947;-90
2023/07/09 03:29:23;;;;;;;;;;;18.40;72.50;;;;;;6190338;23;19920;-91
2023/07/09 03:31:49;;;;;;;;;;;18.40;72.70;;;;;;6192256;23;19932;-91
2023/07/09 03:34:20;;;;;;;;;;;18.50;72.50;;;;;;6215221;23;19924;-91
2023/07/09 03:36:54;;;;;;;;;;;18.50;72.60;;;;;;6186738;23;19916;-91
2023/07/09 03:39:32;;;;;;;;;;;18.50;72.60;;;;;;6193763;23;19927;-91
2023/07/09 03:42:07;;;;;;;;;;;18.50;72.90;;;;;;6192428;23;19923;-91
2023/07/09 03:44:42;;;;;;;;;;;18.50;72.50;;;;;;6190999;23;20006;-91
2023/07/09 03:47:08;;;;;;;;;;;18.50;72.50;;;;;;6184649;23;20222;-90
2023/07/09 03:49:36;;;;;;;;;;;18.50;73.20;;;;;;6191888;23;20319;-91
2023/07/09 03:52:04;;;;;;;;;;;18.50;73.00;;;;;;6192202;23;19959;-91
2023/07/09 03:54:39;;;;;;;;;;;18.50;73.00;;;;;;6179278;23;19920;-91
2023/07/09 03:57:23;;;;;;;;;;;18.50;73.00;;;;;;6195516;23;19986;-91
2023/07/09 03:59:49;;;;;;;;;;;18.50;73.00;;;;;;6192219;23;20346;-90
2023/07/09 04:02:14;;;;;;;;;;;18.50;73.10;;;;;;6189752;23;19927;-91
2023/07/09 04:04:43;;;;;;;;;;;18.50;73.00;;;;;;6191828;23;20123;-91
2023/07/09 04:07:12;;;;;;;;;;;18.50;73.00;;;;;;6208858;23;20685;-89
2023/07/09 04:09:41;;;;;;;;;;;18.50;73.00;;;;;;6191622;23;20243;-91
2023/07/09 04:12:08;;;;;;;;;;;18.50;72.90;;;;;;6175922;23;19927;-91
2023/07/09 04:14:43;;;;;;;;;;;18.50;73.10;;;;;;6190364;23;19926;-91
2023/07/09 04:17:11;;;;;;;;;;;18.50;73.10;;;;;;6166487;23;19955;-90
2023/07/09 04:19:44;;;;;;;;;;;18.60;72.70;;;;;;6190818;23;19998;-91
2023/07/09 04:22:25;;;;;;;;;;;18.60;72.20;;;;;;6150891;23;20396;-91
2023/07/09 04:24:52;;;;;;;;;;;18.70;72.50;;;;;;6191768;23;19991;-92
2023/07/09 04:27:28;;;;;;;;;;;18.70;72.10;;;;;;6182558;23;19919;-91
2023/07/09 04:29:54;;;;;;;;;;;18.70;71.80;;;;;;6192189;23;20016;-92
2023/07/09 04:32:20;;;;;;;;;;;18.80;71.70;;;;;;6189818;23;19923;-92
2023/07/09 04:34:48;;;;;;;;;;;18.90;71.80;;;;;;6191548;23;19919;-91
2023/07/09 04:37:19;;;;;;;;;;;18.90;71.90;;;;;;6185993;23;19927;-92
2023/07/09 04:39:47;;;;;;;;;;;19.00;72.60;;;;;;6216775;23;20234;-92
2023/07/09 04:42:27;;;;;;;;;;;19.00;72.20;;;;;;6189941;23;20331;-92
2023/07/09 04:44:55;;;;;;;;;;;19.10;72.60;;;;;;6192130;23;19920;-92
2023/07/09 04:47:26;;;;;;;;;;;19.10;72.50;;;;;;6182669;23;20294;-91
2023/07/09 04:50:07;;;;;;;;;;;19.10;72.00;;;;;;6191812;23;19959;-91
2023/07/09 04:52:36;;;;;;;;;;;19.10;72.50;;;;;;6175811;23;20246;-91
2023/07/09 04:55:13;;;;;;;;;;;19.10;72.80;;;;;;6192079;23;19919;-92
2023/07/09 04:57:46;;;;;;;;;;;19.10;72.90;;;;;;6148315;23;19919;-93
2023/07/09 05:00:30;;;;;;;;;;;19.20;72.90;;;;;;6191922;23;20289;-92
2023/07/09 05:02:58;;;;;;;;;;;19.20;73.00;;;;;;6162794;23;19924;-92
2023/07/09 05:05:24;;;;;;;;;;;19.20;72.70;;;;;;6167008;23;19955;-92
2023/07/09 05:07:50;;;;;;;;;;;19.30;72.50;;;;;;6232414;23;19920;-91
2023/07/09 05:10:16;;;;;;;;;;;19.30;72.50;;;;;;6191126;23;20242;-91
2023/07/09 05:12:50;;;;;;;;;;;19.30;72.20;;;;;;6161605;23;19942;-91
2023/07/09 05:15:20;;;;;;;;;;;19.40;72.00;;;;;;6191989;23;20346;-92
2023/07/09 05:17:52;;;;;;;;;;;19.50;72.50;;;;;;6182720;23;19923;-91
2023/07/09 05:20:17;;;;;;;;;;;19.50;72.10;;;;;;6166680;23;19927;-92
2023/07/09 05:22:43;;;;;;;;;;;19.50;70.90;;;;;;6215125;23;19919;-92
2023/07/09 05:25:11;;;;;;;;;;;19.70;71.20;;;;;;6192923;23;19926;-92
2023/07/09 05:27:46;;;;;;;;;;;19.70;70.70;;;;;;6184373;23;19926;-91
2023/07/09 05:30:12;;;;;;;;;;;19.80;70.70;;;;;;6168630;23;19959;-91
2023/07/09 05:32:38;;;;;;;;;;;20.00;70.70;;;;;;6191225;23;19942;-92
2023/07/09 05:35:06;;;;;;;;;;;20.00;71.00;;;;;;6193207;23;19965;-92
2023/07/09 05:37:35;;;;;;;;;;;20.10;70.90;;;;;;6185739;23;20318;-93
2023/07/09 05:40:08;;;;;;;;;;;20.30;71.00;;;;;;6191252;23;19998;-92
2023/07/09 05:42:34;;;;;;;;;;;20.30;70.70;;;;;;6164831;23;20269;-92
2023/07/09 05:45:00;;;;;;;;;;;20.30;70.90;;;;;;6191161;23;19931;-91
2023/07/09 05:47:26;;;;;;;;;;;20.40;70.20;;;;;;6206589;23;19924;-91
2023/07/09 05:49:54;;;;;;;;;;;20.50;70.50;;;;;;6193629;23;19923;-92
2023/07/09 05:52:24;;;;;;;;;;;20.60;70.70;;;;;;6173464;23;19982;-92
2023/07/09 05:54:56;;;;;;;;;;;20.60;70.70;;;;;;6193356;23;20015;-92
2023/07/09 05:57:24;;;;;;;;;;;20.70;70.70;;;;;;6184358;23;19974;-92
2023/07/09 05:59:50;;;;;;;;;;;20.80;70.90;;;;;;6193489;23;20334;-91
2023/07/09 06:02:17;;;;;;;;;;;20.80;70.60;;;;;;6240929;23;20000;-92
2023/07/09 06:04:46;;;;;;;;;;;20.80;70.20;;;;;;6193069;23;20334;-92
2023/07/09 06:07:13;;;;;;;;;;;20.80;70.10;;;;;;6155531;23;19920;-91
2023/07/09 06:09:39;;;;;;;;;;;20.90;70.50;;;;;;6192446;23;20326;-91
2023/07/09 06:12:09;;;;;;;;;;;21.00;71.00;;;;;;6177076;23;19930;-91
2023/07/09 06:14:35;;;;;;;;;;;21.00;70.00;;;;;;6192055;23;19920;-91
2023/07/09 06:17:03;;;;;;;;;;;21.00;70.10;;;;;;6186256;23;19923;-92
2023/07/09 06:19:29;;;;;;;;;;;21.00;69.70;;;;;;6190583;23;20330;-92
2023/07/09 06:21:57;;;;;;;;;;;21.10;70.40;;;;;;6193775;23;20015;-91
2023/07/09 06:24:30;;;;;;;;;;;21.10;70.10;;;;;;6215905;23;19931;-92
2023/07/09 06:26:59;;;;;;;;;;;21.10;69.50;;;;;;6210951;23;19919;-91
2023/07/09 06:29:27;;;;;;;;;;;21.20;69.40;;;;;;6150681;23;20008;-91
2023/07/09 06:31:52;;;;;;;;;;;21.40;69.60;;;;;;6192980;23;20401;-92
2023/07/09 06:34:18;;;;;;;;;;;21.40;69.80;;;;;;6201200;23;19928;-91
2023/07/09 06:36:44;;;;;;;;;;;21.50;70.20;;;;;;6237272;23;19915;-94
2023/07/09 06:39:10;;;;;;;;;;;21.70;69.50;;;;;;6217121;23;20334;-92
2023/07/09 06:41:41;;;;;;;;;;;21.70;69.80;;;;;;6193506;23;20323;-92
2023/07/09 06:44:07;;;;;;;;;;;21.90;69.30;;;;;;6133983;23;20351;-91
2023/07/09 06:46:48;;;;;;;;;;;;;;;;;;;;;
2023/07/09 06:49:17;;;;;;;;;;;22.10;68.90;;;;;;6214893;23;20721;-92
2023/07/09 06:51:47;;;;;;;;;;;22.20;69.10;;;;;;6192595;23;19919;-92
2023/07/09 06:54:15;;;;;;;;;;;22.30;69.70;;;;;;6151916;23;19994;-93
2023/07/09 06:56:44;;;;;;;;;;;22.40;70.40;;;;;;6187786;23;19996;-93
2023/07/09 06:59:27;;;;;;;;;;;22.40;70.10;;;;;;6150097;23;19947;-91
2023/07/09 07:01:53;;;;;;;;;;;22.50;69.40;;;;;;6192309;23;19959;-93
2023/07/09 07:04:21;;;;;;;;;;;22.50;69.20;;;;;;6171530;23;19923;-91
2023/07/09 07:06:47;;;;;;;;;;;22.60;69.30;;;;;;6187081;23;19915;-93
2023/07/09 07:09:45;;;;;;;;;;;22.70;69.00;;;;;;6198742;23;19987;-93
2023/07/09 07:12:22;;;;;;;;;;;22.80;69.00;;;;;;6189900;23;19947;-93
2023/07/09 07:14:50;;;;;;;;;;;23.00;69.90;;;;;;6193508;23;19926;-92
2023/07/09 07:17:19;;;;;;;;;;;23.10;68.70;;;;;;6210005;23;19962;-93
2023/07/09 07:19:48;;;;;;;;;;;23.20;68.60;;;;;;6188939;23;19920;-90
2023/07/09 07:22:13;;;;;;;;;;;23.30;68.70;;;;;;6185631;23;19920;-93
2023/07/09 07:24:42;;;;;;;;;;;23.40;68.90;;;;;;6243868;23;19931;-93
2023/07/09 07:27:10;;;;;;;;;;;23.60;68.10;;;;;;6185667;23;19946;-94
2023/07/09 07:29:39;;;;;;;;;;;23.70;68.10;;;;;;6192696;23;19920;-93
2023/07/09 07:32:08;;;;;;;;;;;23.80;68.60;;;;;;6177131;22;20250;-92
2023/07/09 07:34:34;;;;;;;;;;;23.90;67.60;;;;;;6192021;23;19951;-94
2023/07/09 07:37:02;;;;;;;;;;;24.00;67.30;;;;;;6186739;23;19966;-92
2023/07/09 07:39:28;;;;;;;;;;;24.00;68.00;;;;;;6217400;23;19951;-94
2023/07/09 07:41:57;;;;;;;;;;;24.00;68.40;;;;;;6242957;23;20243;-95
2023/07/09 07:44:25;;;;;;;;;;;24.10;67.50;;;;;;6191715;23;19947;-93
2023/07/09 07:46:54;;;;;;;;;;;24.10;67.80;;;;;;6212619;23;19916;-94
2023/07/09 07:49:20;;;;;;;;;;;24.20;68.10;;;;;;6192110;23;20374;-96
2023/07/09 07:51:48;;;;;;;;;;;24.20;68.20;;;;;;6193951;23;19955;-90
2023/07/09 07:54:19;;;;;;;;;;;24.30;67.50;;;;;;6191589;23;19978;-95
2023/07/09 07:56:45;;;;;;;;;;;24.40;66.90;;;;;;6189372;23;19923;-92
2023/07/09 07:59:14;;;;;;;;;;;24.50;66.40;;;;;;6173401;23;19974;-93
2023/07/09 08:01:39;;;;;;;;;;;24.60;67.00;;;;;;6243951;23;20271;-93
2023/07/09 08:04:08;;;;;;;;;;;24.70;66.40;;;;;;6216063;23;19926;-93
2023/07/09 08:06:36;;;;;;;;;;;24.70;66.80;;;;;;6188940;23;19995;-94
2023/07/09 08:09:05;;;;;;;;;;;24.80;66.60;;;;;;6240847;23;19999;-93
2023/07/09 08:11:34;;;;;;;;;;;25.00;67.10;;;;;;6193540;23;20342;-93
2023/07/09 08:14:00;;;;;;;;;;;25.00;67.30;;;;;;6242264;23;19926;-93
2023/07/09 08:16:29;;;;;;;;;;;25.00;67.30;;;;;;6189410;23;20013;-94
2023/07/09 08:18:55;;;;;;;;;;;25.10;66.90;;;;;;6189319;23;19950;-96
2023/07/09 08:21:24;;;;;;;;;;;25.20;65.80;;;;;;6193539;23;19923;-94
2023/07/09 08:23:52;;;;;;;;;;;25.30;65.80;;;;;;6178503;23;20374;-94
2023/07/09 08:26:18;;;;;;;;;;;25.40;65.70;;;;;;6242043;23;19945;-95
2023/07/09 08:28:43;;;;;;;;;;;25.40;65.50;;;;;;6212809;23;19919;-96
2023/07/09 08:31:09;;;;;;;;;;;25.50;65.40;;;;;;6219601;23;20357;-96
2023/07/09 08:33:36;;;;;;;;;;;25.60;65.80;;;;;;6205532;23;19920;-96
2023/07/09 08:36:01;;;;;;;;;;;25.60;65.00;;;;;;6188012;23;19926;-95
2023/07/09 08:38:29;;;;;;;;;;;25.70;65.70;;;;;;6187860;23;19970;-96
2023/07/09 08:41:01;;;;;;;;;;;25.80;65.40;;;;;;6218575;23;19920;-94
2023/07/09 08:43:27;;;;;;;;;;;25.80;65.60;;;;;;6217653;23;20334;-96
2023/07/09 08:46:20;;;;;;;;;;;25.80;65.70;;;;;;6218565;23;19926;-96
2023/07/09 08:48:50;;;;;;;;;;;26.00;66.30;;;;;;6189410;23;19924;-95
2023/07/09 08:51:16;;;;;;;;;;;26.10;66.20;;;;;;6193447;23;19961;-94
2023/07/09 08:54:00;;;;;;;;;;;26.20;64.80;;;;;;6192021;23;19920;-94
2023/07/09 08:56:28;;;;;;;;;;;26.40;65.30;;;;;;6165964;23;20523;-95
2023/07/09 08:58:55;;;;;;;;;;;26.50;65.40;;;;;;6161882;23;20285;-96
2023/07/09 09:01:40;;;;;;;;;;;26.50;65.60;;;;;;6220275;23;20591;-94
2023/07/09 09:04:19;;;;;;;;;;;26.60;65.20;;;;;;6194506;23;20333;-91
2023/07/09 09:06:47;;;;;;;;;;;26.70;65.90;;;;;;6189245;23;19920;-94
2023/07/09 09:09:13;;;;;;;;;;;26.70;64.70;;;;;;6217822;23;19931;-96
2023/07/09 09:11:44;;;;;;;;;;;26.70;64.20;;;;;;6246081;23;19924;-94
2023/07/09 09:14:28;;;;;;;;;;;26.60;65.00;;;;;;6217736;23;20061;-93
2023/07/09 09:16:55;;;;;;;;;;;26.70;65.20;;;;;;6188261;23;20055;-96
2023/07/09 09:19:27;;;;;;;;;;;26.70;64.50;;;;;;6193575;23;20249;-92
2023/07/09 09:22:13;;;;;;;;;;;26.80;64.50;;;;;;6246096;23;19920;-93
2023/07/09 09:24:57;;;;;;;;;;;26.80;64.80;;;;;;6217953;23;20246;-91
2023/07/09 09:27:26;;;;;;;;;;;26.80;65.20;;;;;;6214031;23;19935;-92
2023/07/09 09:29:51;;;;;;;;;;;26.90;65.10;;;;;;6219199;23;19920;-93
2023/07/09 09:32:31;;;;;;;;;;;27.00;65.10;;;;;;6243058;23;19919;-93
2023/07/09 09:34:57;;;;;;;;;;;27.10;65.20;;;;;;6194691;23;19926;-93
2023/07/09 09:37:30;;;;;;;;;;;27.10;64.20;;;;;;6212843;23;20312;-91
2023/07/09 09:40:05;;;;;;;;;;;27.00;64.50;;;;;;6193405;23;19919;-96
2023/07/09 09:42:34;;;;;;;;;;;27.00;64.60;;;;;;6191531;23;19927;-92
2023/07/09 09:45:02;;;;;;;;;;;27.00;64.50;;;;;;6194437;23;19920;-95
2023/07/09 09:47:28;;;;;;;;;;;27.10;64.80;;;;;;6169314;23;19925;-94
2023/07/09 09:49:54;;;;;;;;;;;27.10;65.10;;;;;;6194704;23;19942;-94
2023/07/09 09:52:20;;;;;;;;;;;27.10;64.90;;;;;;6217917;23;19919;-93
2023/07/09 09:54:53;;;;;;;;;;;27.10;64.50;;;;;;6245306;23;20302;-93
2023/07/09 09:57:21;;;;;;;;;;;27.10;64.80;;;;;;6210632;23;19955;-91
2023/07/09 09:59:47;;;;;;;;;;;27.20;64.40;;;;;;6219454;23;20345;-93
2023/07/09 10:02:15;;;;;;;;;;;27.20;64.40;;;;;;6202693;23;19920;-92
2023/07/09 10:04:41;;;;;;;;;;;27.40;64.50;;;;;;6220399;23;19923;-95
2023/07/09 10:07:07;;;;;;;;;;;27.40;64.10;;;;;;6187965;23;19923;-94
2023/07/09 10:09:49;;;;;;;;;;;27.40;64.40;;;;;;6246245;23;19926;-96
2023/07/09 10:12:45;;;;;;;;;;;27.40;64.10;;;;;;6196090;23;19923;-95
2023/07/09 10:15:17;;;;;;;;;;;27.40;63.60;;;;;;6194252;23;19970;-93
2023/07/09 10:18:05;;;;;;;;;;;27.40;64.10;;;;;;6188272;23;19930;-95
2023/07/09 10:20:57;;;;;;;;;;;27.40;64.50;;;;;;6194358;23;19923;-93
2023/07/09 10:23:41;;;;;;;;;;;27.40;63.90;;;;;;6187240;23;19919;-95
2023/07/09 10:26:25;;;;;;;;;;;27.40;63.10;;;;;;6221396;23;19920;-94
2023/07/09 10:29:03;;;;;;;;;;;27.40;62.30;;;;;;6176387;23;19935;-93
2023/07/09 10:31:39;;;;;;;;;;;27.40;61.00;;;;;;6194363;23;20361;-96
2023/07/09 10:34:13;;;;;;;;;;;27.30;61.10;;;;;;6218631;23;19946;-90
2023/07/09 10:36:39;;;;;;;;;;;27.30;60.00;;;;;;6214850;23;19927;-91
2023/07/09 10:39:08;;;;;;;;;;;27.20;59.30;;;;;;6193904;23;19919;-93
2023/07/09 10:41:36;;;;;;;;;;;27.10;59.60;;;;;;6195566;23;19919;-96
2023/07/09 10:44:08;;;;;;;;;;;27.10;59.20;;;;;;6192901;23;19924;-94
2023/07/09 10:46:37;;;;;;;;;;;27.10;60.00;;;;;;6190744;23;19915;-94
2023/07/09 10:49:06;;;;;;;;;;;27.10;59.90;;;;;;6241834;23;19935;-95
2023/07/09 10:51:33;;;;;;;;;;;27.00;60.60;;;;;;6169735;23;19919;-92
2023/07/09 10:54:03;;;;;;;;;;;27.00;60.20;;;;;;6203763;23;19990;-93
2023/07/09 10:56:38;;;;;;;;;;;27.00;59.20;;;;;;6217298;23;19974;-95
2023/07/09 10:59:18;;;;;;;;;;;27.00;59.40;;;;;;6174999;23;19927;-96
2023/07/09 11:01:49;;;;;;;;;;;27.10;58.90;;;;;;6244754;23;20326;-95
2023/07/09 11:04:23;;;;;;;;;;;27.10;58.90;;;;;;6242626;23;19919;-93
2023/07/09 11:06:53;;;;;;;;;;;27.10;58.60;;;;;;6189139;23;20521;-94
2023/07/09 11:09:25;;;;;;;;;;;27.20;58.10;;;;;;6191549;23;19955;-92
2023/07/09 11:11:53;;;;;;;;;;;27.20;57.40;;;;;;6217893;23;20365;-95
2023/07/09 11:14:52;;;;;;;;;;;27.20;56.40;;;;;;6242834;23;19930;-94
2023/07/09 11:17:19;;;;;;;;;;;27.20;56.90;;;;;;6120081;23;19971;-96
2023/07/09 11:19:46;;;;;;;;;;;27.20;57.90;;;;;;6244756;23;20323;-92
2023/07/09 11:22:17;;;;;;;;;;;27.20;57.10;;;;;;6242371;23;19920;-91
2023/07/09 11:24:52;;;;;;;;;;;27.30;58.20;;;;;;6194132;23;19951;-91
2023/07/09 11:27:29;;;;;;;;;;;27.30;57.50;;;;;;6171155;23;19920;-92
2023/07/09 11:29:59;;;;;;;;;;;27.30;57.80;;;;;;6217857;23;19927;-92
2023/07/09 11:32:32;;;;;;;;;;;27.40;59.00;;;;;;6191709;23;19942;-90
2023/07/09 11:35:38;;;;;;;;;;;27.40;59.30;;;;;;6194589;23;19926;-93
2023/07/09 11:38:11;;;;;;;;;;;27.50;58.00;;;;;;6195291;23;19926;-92
2023/07/09 11:40:53;;;;;;;;;;;27.40;58.70;;;;;;6194578;23;19926;-93
2023/07/09 11:43:38;;;;;;;;;;;27.40;59.00;;;;;;6176426;23;19923;-94
2023/07/09 11:46:16;;;;;;;;;;;27.50;59.60;;;;;;6194758;23;19926;-93
2023/07/09 11:48:43;;;;;;;;;;;27.50;59.10;;;;;;6213928;23;20326;-93
2023/07/09 11:51:14;;;;;;;;;;;27.60;60.60;;;;;;6169258;23;19928;-93
2023/07/09 11:53:54;;;;;;;;;;;27.60;59.70;;;;;;6205239;23;19924;-93
2023/07/09 11:56:23;;;;;;;;;;;27.70;59.80;;;;;;6215614;23;20262;-95
2023/07/09 11:58:55;;;;;;;;;;;27.70;59.60;;;;;;6188452;23;19950;-95
2023/07/09 12:01:27;;;;;;;;;;;27.80;59.10;;;;;;6193825;23;19927;-95
2023/07/09 12:03:53;;;;;;;;;;;27.80;57.60;;;;;;6191458;23;19947;-93
2023/07/09 12:06:22;;;;;;;;;;;27.70;56.90;;;;;;6241211;23;20305;-95
2023/07/09 12:09:06;;;;;;;;;;;27.80;57.70;;;;;;5043183;27;2081751;-94
2023/07/09 12:11:33;;;;;;;;;;;27.80;56.20;;;;;;5090461;28;19924;-96
2023/07/09 12:14:26;;;;;;;;;;;27.80;56.70;;;;;;5074857;28;19925;-95
2023/07/09 12:16:53;;;;;;;;;;;27.80;57.30;;;;;;5095542;28;20558;-94
2023/07/09 12:19:19;;;;;;;;;;;27.80;56.70;;;;;;5061224;28;20010;-94
2023/07/09 12:21:46;;;;;;;;;;;27.80;56.80;;;;;;5076218;28;19931;-92
2023/07/09 12:24:18;;;;;;;;;;;27.90;56.40;;;;;;5071784;28;19931;-93
2023/07/09 12:26:47;;;;;;;;;;;27.90;55.90;;;;;;5074113;28;20443;-94
2023/07/09 12:29:12;;;;;;;;;;;28.00;56.90;;;;;;5100339;28;20337;-94
2023/07/09 12:31:39;;;;;;;;;;;28.10;56.90;;;;;;5092021;28;20007;-92
2023/07/09 12:34:05;;;;;;;;;;;28.10;55.80;;;;;;5091814;28;19923;-94
2023/07/09 12:36:49;;;;;;;;;;;28.10;57.20;;;;;;5085472;28;19927;-96
2023/07/09 12:39:31;;;;;;;;;;;28.10;57.10;;;;;;5079960;28;19924;-94
2023/07/09 12:42:26;;;;;;;;;;;;;;;;;;;;;
2023/07/09 12:45:30;;;;;;;;;;;28.10;56.20;;;;;;5096392;28;19935;-96
2023/07/09 12:47:56;;;;;;;;;;;28.10;55.70;;;;;;4976984;28;20196;-95
2023/07/09 12:50:35;;;;;;;;;;;28.10;56.90;;;;;;4981990;28;19934;-96
2023/07/09 12:53:10;;;;;;;;;;;28.20;55.90;;;;;;4959389;28;19926;-94
2023/07/09 12:55:47;;;;;;;;;;;28.20;55.50;;;;;;5054173;28;19931;-94
2023/07/09 12:58:32;;;;;;;;;;;;;;;;;;;;;
2023/07/09 13:01:07;;;;;;;;;;;28.20;57.10;;;;;;5082241;28;20091;-96
2023/07/09 13:03:34;;;;;;;;;;;28.20;55.10;;;;;;5078233;28;19932;-94
2023/07/09 13:05:59;;;;;;;;;;;28.10;55.80;;;;;;5076869;28;20019;-93
2023/07/09 13:08:26;;;;;;;;;;;28.20;55.70;;;;;;5080123;28;19991;-96
2023/07/09 13:10:53;;;;;;;;;;;28.20;56.00;;;;;;5085777;28;19928;-92
2023/07/09 13:16:10;;;;;;;;;;;28.30;56.90;;;;;;5073244;28;19928;-92
2023/07/09 13:18:36;;;;;;;;;;;28.30;55.40;;;;;;5034017;28;19928;-95
2023/07/09 13:21:13;;;;;;;;;;;28.30;56.40;;;;;;5058105;28;19981;-95
2023/07/09 13:26:52;;;;;;;;;;;28.30;56.50;;;;;;5065326;28;19925;-94
2023/07/09 13:32:16;;;;;;;;;;;28.30;57.10;;;;;;5089198;28;19930;-96
2023/07/09 13:34:54;;;;;;;;;;;;;;;;;;;;;
2023/07/09 13:37:42;;;;;;;;;;;28.30;56.50;;;;;;5081176;28;19935;-96
2023/07/09 13:40:10;;;;;;;;;;;28.30;56.30;;;;;;5069387;28;20008;-95
2023/07/09 13:42:36;;;;;;;;;;;28.30;57.00;;;;;;5069167;28;20385;-96
2023/07/09 13:45:27;;;;;;;;;;;28.30;57.80;;;;;;5033634;28;19960;-96
2023/07/09 13:48:29;;;;;;;;;;;28.50;57.40;;;;;;5052715;28;19924;-96
2023/07/09 13:53:59;;;;;;;;;;;28.40;57.20;;;;;;5045110;28;19932;-96
2023/07/09 13:56:38;;;;;;;;;;;28.30;57.30;;;;;;5029093;28;19920;-93
2023/07/09 13:59:05;;;;;;;;;;;28.30;57.60;;;;;;5064582;28;20026;-96
2023/07/09 14:01:33;;;;;;;;;;;28.30;58.00;;;;;;5063715;28;19983;-96
2023/07/09 14:04:27;;;;;;;;;;;28.50;57.90;;;;;;5052589;28;20150;-95
2023/07/09 14:06:54;;;;;;;;;;;28.50;56.70;;;;;;5069034;28;19959;-95
2023/07/09 14:09:21;;;;;;;;;;;28.40;56.90;;;;;;5045229;28;20382;-93
2023/07/09 14:11:53;;;;;;;;;;;28.50;56.80;;;;;;5068421;28;20007;-94
2023/07/09 14:18:15;;;;;;;;;;;28.50;58.00;;;;;;5005488;28;20024;-95
2023/07/09 14:20:41;;;;;;;;;;;28.50;57.20;;;;;;4936600;28;20459;-96
2023/07/09 14:23:40;;;;;;;;;;;28.30;57.20;;;;;;5019521;28;19929;-95
2023/07/09 14:29:18;;;;;;;;;;;28.10;57.70;;;;;;5013430;28;19927;-96
2023/07/09 14:31:47;;;;;;;;;;;27.90;58.10;;;;;;5023598;28;20009;-93
2023/07/09 14:34:18;;;;;;;;;;;27.80;58.90;;;;;;5033064;28;19925;-96
2023/07/09 14:36:43;;;;;;;;;;;27.70;57.70;;;;;;5057496;28;19920;-95
2023/07/09 14:39:30;;;;;;;;;;;27.50;58.10;;;;;;5073419;28;19931;-95
2023/07/09 14:41:56;;;;;;;;;;;27.40;58.90;;;;;;5077792;28;19985;-95
2023/07/09 14:44:59;;;;;;;;;;;27.30;59.70;;;;;;5070724;28;19928;-94
2023/07/09 14:48:03;;;;;;;;;;;;;;;;;;;;;
2023/07/09 14:50:38;;;;;;;;;;;27.00;60.50;;;;;;5059153;28;19924;-96
2023/07/09 14:53:26;;;;;;;;;;;26.70;60.80;;;;;;5023628;28;19940;-95
2023/07/09 15:12:30;;;;;;;;;;;25.10;63.10;;;;;;4905792;29;19980;-93
2023/07/09 15:15:23;;;;;;;;;;;24.50;63.10;;;;;;4923296;29;19927;-93
2023/07/09 15:17:49;;;;;;;;;;;24.20;62.80;;;;;;5067412;28;19924;-93
2023/07/09 15:29:49;;;;;;;;;;;23.30;59.20;;;;;;4953035;28;19937;-96
2023/07/09 15:32:15;;;;;;;;;;;23.20;60.20;;;;;;4940212;28;20286;-92
2023/07/09 15:34:41;;;;;;;;;;;23.10;60.70;;;;;;5010334;28;19929;-91